• Join FlightAware (Why Join?)
  • Login
  • US Flag 
04:11AM EDT


 

Airport Tracker/Info


-or-


 

Live Flight TrackerFlight Track Log ✈ UAL6044 ✈ 19-Jul-2013 ✈ KORD - KLNK

Flight Track Log - Related Links

Times and Time Zones

All times are in EDT time to prevent confusion due to time zone crossing. See the UAL6044 flight status page for this flight to view local times or setup timezone preferences in your user account.

Time Position Orientation Groundspeed Altitude Reporting Facility
EDT Latitude Longitude Course Direction KTS MPH feet Rate Location/Type
07:48PM 42.0000 -87.9667 261° West 168 193 3,300  Level Chicago TRACON
07:49PM 42.0000 -88.0500 270° West 222 255 5,100 2,100 Climbing Chicago TRACON
07:50PM 41.9667 -88.1333 242° Southwest 245 282 7,500 2,220 Climbing Chicago TRACON
07:51PM 41.9196 -88.4019 255° West  Level FlightAware Approximate
07:52PM 41.9094 -88.5289 261° West  Level FlightAware Approximate
07:52PM 41.9644 -88.2461 269° West 255 293 10,300  Level Chicago Center
07:53PM 41.8945 -88.6556 261° West  Level FlightAware Approximate
07:53PM 41.9608 -88.3494 267° West 274 315 12,600  Level Chicago Center
07:54PM 41.9558 -88.4767 267° West 287 330 13,000 480 Climbing Chicago Center
07:55PM 41.9356 -88.5842 256° West 296 341 13,700 720 Climbing Chicago Center
07:56PM 41.9128 -88.7097 256° West 341 392 14,600 960 Climbing Chicago Center
07:57PM 41.8892 -88.8406 256° West 363 418 15,700 1,140 Climbing Chicago Center
07:58PM 41.8600 -89.0022 256° West 374 430 17,000 780 Climbing Chicago Center
07:59PM 41.8361 -89.1406 257° West 383 441 17,400 780 Climbing Chicago Center
08:00PM 41.8131 -89.2792 257° West 387 445 18,700 1,200 Climbing Chicago Center
08:01PM 41.7897 -89.4106 257° West 369 425 20,000 1,200 Climbing Chicago Center
08:02PM 41.7656 -89.5425 256° West 367 422 21,200 1,080 Climbing Chicago Center
08:03PM 41.7297 -89.6947 253° West 369 425 22,300 960 Climbing Chicago Center
08:04PM 41.6958 -89.8253 251° West 374 430 23,200 900 Climbing Chicago Center
08:05PM 41.6728 -89.9631 257° West 377 434 24,200 1,020 Climbing Chicago Center
08:06PM 41.6728 -90.1011 270° West 386 444 25,400 1,020 Climbing Chicago Center
08:07PM 41.7411 -90.2058 311° West 383 441 26,400 900 Climbing Chicago Center
08:08PM 41.8406 -90.2919 327° Northwest 394 453 27,300 840 Climbing Chicago Center
08:09PM 41.9386 -90.3583 333° Northwest 395 455 28,200 900 Climbing Chicago Center
08:10PM 42.0542 -90.4497 330° Northwest 405 466 29,200 840 Climbing Chicago Center
08:11PM 42.0811 -90.5869 285° West 392 451 30,000 960 Climbing Chicago Center
08:12PM 42.0572 -90.7278 257° West 388 447 31,200 960 Climbing Chicago Center
08:13PM 42.0328 -90.8639 256° West 378 435 32,000 360 Climbing Chicago Center
08:14PM 42.0103 -91.0047 258° West 382 440 32,000  Level Chicago Center
08:15PM 41.9789 -91.1831 257° West 403 464 32,000  Level Chicago Center
08:16PM 41.9517 -91.3325 256° West 411 473 32,000  Level Chicago Center
08:17PM 41.9261 -91.4828 257° West 415 478 32,000  Level Chicago Center
08:18PM 41.8992 -91.6336 257° West 418 481 32,000  Level Chicago Center
08:19PM 41.8722 -91.7847 257° West 419 482 32,000  Level Chicago Center
08:20PM 41.8386 -91.9661 256° West 420 483 32,000  Level Chicago Center
08:22PM 41.8108 -92.1169 256° West 420 483 32,000  Level Chicago Center
08:23PM 41.7839 -92.2667 256° West 418 481 32,000  Level Chicago Center
08:24PM 41.7547 -92.4156 255° West 416 479 32,000  Level Chicago Center
08:25PM 41.7269 -92.5656 256° West 417 480 32,000  Level Chicago Center
08:26PM 41.6933 -92.7478 256° West 421 484 32,000  Level Chicago Center
08:27PM 41.6675 -92.8856 256° West 423 487 32,000  Level Chicago Center
08:28PM 41.6386 -93.0350 256° West 421 484 32,000  Level Chicago Center
08:29PM 41.6044 -93.2133 256° West 418 481 32,000  Level Chicago Center
08:30PM 41.5750 -93.3631 255° West 421 484 32,000  Level Chicago Center
08:31PM 41.5458 -93.5108 255° West 417 480 32,000  Level Chicago Center
08:32PM 41.5167 -93.6592 255° West 418 481 32,000  Level Chicago Center
08:33PM 41.4808 -93.8364 255° West 418 481 32,000  Level Chicago Center
08:34PM 41.4517 -93.9842 255° West 418 481 32,000  Level Chicago Center
08:35PM 41.4211 -94.1328 255° West 419 482 32,000  Level Chicago Center
08:36PM 41.3903 -94.2806 255° West 419 482 32,000  Level Chicago Center
08:37PM 41.3606 -94.4297 255° West 421 484 32,000 -300 Level Chicago Center
08:38PM 41.3161 -94.6375 254° West 423 487 31,400 -720 Descending Minneapolis Center
08:39PM 41.2844 -94.7861 254° West 422 486 30,400 -1,500 Descending Minneapolis Center
08:40PM 41.2561 -94.9358 256° West 419 482 28,400 -2,040 Descending Minneapolis Center
08:41PM 41.2233 -95.0878 254° West 424 488 26,300 -1,620 Descending Minneapolis Center
08:42PM 41.1897 -95.2400 254° West 428 493 25,100 -1,260 Descending Minneapolis Center
08:43PM 41.1508 -95.4192 254° West 420 483 23,800 -1,200 Descending Minneapolis Center
08:44PM 41.1336 -95.5175 257° West 413 475 23,100 -1,020 Descending Minneapolis Center
08:45PM 41.0981 -95.6711 253° West 408 470 22,000 -1,260 Descending Minneapolis Center
08:46PM 41.0617 -95.8139 251° West 408 470 20,500 -2,040 Descending Minneapolis Center
08:47PM 41.0258 -95.9672 253° West 398 458 17,900 -2,520 Descending Minneapolis Center
08:48PM 40.9664 -96.0817 236° Southwest 370 426 15,400 -2,640 Descending Minneapolis Center
08:49PM 40.9022 -96.1908 232° Southwest 370 426 12,600 -2,340 Descending Minneapolis Center
08:50PM 40.8358 -96.2975 231° Southwest 374 430 10,700 -1,320 Descending Minneapolis Center
08:51PM 40.7794 -96.3997 234° Southwest 314 361 10,000 -1,440 Descending Minneapolis Center
08:52PM 40.7322 -96.4819 233° Southwest 283 326 7,800 -2,040 Descending Minneapolis Center
08:53PM 40.6850 -96.5639 233° Southwest 285 328 5,900 -1,380 Descending Minneapolis Center
08:54PM 40.6564 -96.6436 245° Southwest 245 282 5,200 -840 Descending Minneapolis Center
08:55PM 40.6653 -96.6978 282° West 253 291 4,700 -1,020 Descending Minneapolis Center
08:55PM 40.6719 -96.7300 285° West 221 254 4,100 -1,140 Descending Minneapolis Center